createdAt,value
2023-05-09T00:00:40.010Z,3.28
2023-05-09T00:03:09.675Z,2.65
2023-05-09T00:05:39.160Z,3.03
2023-05-09T00:08:08.821Z,3.22
2023-05-09T00:10:39.677Z,3.67
2023-05-09T00:13:09.470Z,3.08
2023-05-09T00:15:39.309Z,3.30
2023-05-09T00:18:09.425Z,3.35
2023-05-09T00:20:41.198Z,2.80
2023-05-09T00:23:10.662Z,6.90
2023-05-09T00:25:41.532Z,3.80
2023-05-09T00:28:11.278Z,2.70
2023-05-09T00:30:40.775Z,3.80
2023-05-09T00:33:10.359Z,4.40
2023-05-09T00:35:40.133Z,5.25
2023-05-09T00:38:09.752Z,5.05
2023-05-09T00:40:43.628Z,4.82
2023-05-09T00:43:13.073Z,5.05
2023-05-09T00:45:42.707Z,5.43
2023-05-09T00:49:43.592Z,11.98
2023-05-09T00:52:13.218Z,5.47
2023-05-09T00:54:42.717Z,5.55
2023-05-09T00:57:12.193Z,5.65
2023-05-09T00:59:41.723Z,7.95
2023-05-09T01:02:11.327Z,5.13
2023-05-09T01:04:42.742Z,5.72
2023-05-09T01:07:21.101Z,6.55
2023-05-09T01:10:01.383Z,5.03
2023-05-09T01:12:39.070Z,4.45
2023-05-09T01:15:15.898Z,4.55
2023-05-09T01:17:55.686Z,4.68
2023-05-09T01:20:35.556Z,4.45
2023-05-09T01:23:36.826Z,5.00
2023-05-09T01:26:08.795Z,4.80
2023-05-09T01:29:07.874Z,4.38
2023-05-09T01:31:43.811Z,4.50
2023-05-09T01:34:17.484Z,4.13
2023-05-09T01:36:49.418Z,4.03
2023-05-09T01:39:21.150Z,6.27
2023-05-09T01:41:50.863Z,5.17
2023-05-09T01:44:21.083Z,4.93
2023-05-09T01:46:54.271Z,4.13
2023-05-09T01:49:25.199Z,5.65
2023-05-09T01:51:56.663Z,4.90
2023-05-09T01:54:27.016Z,5.97
2023-05-09T01:56:58.170Z,5.82
2023-05-09T01:59:29.367Z,6.93
2023-05-09T02:02:01.155Z,5.35
2023-05-09T02:04:32.282Z,6.13
2023-05-09T02:07:03.350Z,5.20
2023-05-09T02:09:33.088Z,5.15
2023-05-09T02:12:04.846Z,5.25
2023-05-09T02:14:34.583Z,4.60
2023-05-09T02:17:07.174Z,5.70
2023-05-09T02:22:07.708Z,5.35
2023-05-09T02:24:37.594Z,7.18
2023-05-09T02:27:08.156Z,6.63
2023-05-09T02:29:42.263Z,5.47
2023-05-09T02:32:17.917Z,5.30
2023-05-09T02:34:49.758Z,5.95
2023-05-09T02:37:20.875Z,5.97
2023-05-09T02:39:50.522Z,5.03
2023-05-09T02:42:26.594Z,4.88
2023-05-09T02:44:56.389Z,7.07
2023-05-09T02:47:27.365Z,6.60
2023-05-09T02:49:56.803Z,5.85
2023-05-09T02:52:26.447Z,9.77
2023-05-09T02:54:55.981Z,6.30
2023-05-09T02:57:25.398Z,6.40
2023-05-09T02:59:54.886Z,6.32
2023-05-09T03:02:26.417Z,5.55
2023-05-09T03:04:55.854Z,4.97
2023-05-09T03:07:25.412Z,5.05
2023-05-09T03:09:54.989Z,5.38
2023-05-09T03:12:24.462Z,5.32
2023-05-09T03:14:53.956Z,5.60
2023-05-09T03:17:23.547Z,5.13
2023-05-09T03:19:54.390Z,6.43
2023-05-09T03:22:23.783Z,5.90
2023-05-09T03:24:53.229Z,5.03
2023-05-09T03:27:22.637Z,5.20
2023-05-09T03:29:52.075Z,5.15
2023-05-09T03:32:21.715Z,5.63
2023-05-09T03:34:52.752Z,5.10
2023-05-09T03:37:22.374Z,6.68
2023-05-09T03:39:51.824Z,6.40
2023-05-09T03:42:21.742Z,6.32
2023-05-09T03:44:51.386Z,8.15
2023-05-09T03:50:43.534Z,6.97
2023-05-09T03:53:13.042Z,7.80
2023-05-09T03:55:42.622Z,9.52
2023-05-09T03:58:12.802Z,7.47
2023-05-09T04:00:43.377Z,8.48
2023-05-09T04:03:12.977Z,9.38
2023-05-09T04:05:44.535Z,7.88
2023-05-09T04:08:28.363Z,7.30
2023-05-09T04:10:57.844Z,7.85
2023-05-09T04:13:28.458Z,6.80
2023-05-09T04:15:58.050Z,9.85
2023-05-09T04:18:27.504Z,9.98
2023-05-09T04:20:58.572Z,8.05
2023-05-09T04:23:28.337Z,7.03
2023-05-09T04:25:57.976Z,7.35
2023-05-09T04:28:27.531Z,7.53
2023-05-09T04:30:57.604Z,9.65
2023-05-09T04:33:29.386Z,8.05
2023-05-09T04:36:00.310Z,7.93
2023-05-09T04:38:29.994Z,7.72
2023-05-09T04:40:59.583Z,8.13
2023-05-09T04:43:30.047Z,7.25
2023-05-09T04:45:59.578Z,7.18
2023-05-09T04:48:29.088Z,7.47
2023-05-09T04:50:59.958Z,7.63
2023-05-09T04:53:29.960Z,6.35
2023-05-09T04:55:59.391Z,7.72
2023-05-09T04:58:28.886Z,6.25
2023-05-09T05:00:58.418Z,6.93
2023-05-09T05:03:27.848Z,6.60
2023-05-09T05:05:58.653Z,6.18
2023-05-09T05:08:28.008Z,7.05
2023-05-09T05:10:57.614Z,6.20
2023-05-09T05:13:27.471Z,6.68
2023-05-09T05:15:59.042Z,5.88
2023-05-09T05:18:28.874Z,6.10
2023-05-09T05:20:59.907Z,5.78
2023-05-09T05:23:29.323Z,6.22
2023-05-09T05:25:58.852Z,6.15
2023-05-09T05:28:28.366Z,6.68
2023-05-09T05:30:57.761Z,5.60
2023-05-09T05:33:27.253Z,6.55
2023-05-09T05:35:56.619Z,6.95
2023-05-09T05:38:27.660Z,7.22
2023-05-09T05:40:57.001Z,7.72
2023-05-09T05:43:26.483Z,7.55
2023-05-09T05:45:56.855Z,6.85
2023-05-09T05:48:27.008Z,7.28
2023-05-09T05:50:56.438Z,7.30
2023-05-09T05:53:27.394Z,7.40
2023-05-09T05:55:56.948Z,7.13
2023-05-09T05:58:26.820Z,6.80
2023-05-09T06:00:56.320Z,7.30
2023-05-09T06:03:26.009Z,7.30
2023-05-09T06:05:56.275Z,6.68
2023-05-09T06:08:27.285Z,6.22
2023-05-09T06:10:56.679Z,7.20
2023-05-09T06:13:26.284Z,7.55
2023-05-09T06:16:07.854Z,6.70
2023-05-09T06:18:45.147Z,6.60
2023-05-09T06:21:14.747Z,8.60
2023-05-09T06:24:01.537Z,6.78
2023-05-09T06:26:35.237Z,6.47
2023-05-09T06:29:04.681Z,7.22
2023-05-09T06:31:36.211Z,7.20
2023-05-09T06:34:05.665Z,7.43
2023-05-09T06:36:35.159Z,7.25
2023-05-09T06:39:06.243Z,6.43
2023-05-09T06:41:35.790Z,7.90
2023-05-09T06:44:05.286Z,7.10
2023-05-09T06:46:35.119Z,6.43
2023-05-09T06:50:43.483Z,6.35
2023-05-09T06:53:12.957Z,6.78
2023-05-09T06:55:42.490Z,6.68
2023-05-09T06:58:12.558Z,6.95
2023-05-09T07:00:42.224Z,5.60
2023-05-09T07:03:11.976Z,7.75
2023-05-09T07:05:43.212Z,5.82
2023-05-09T07:08:12.781Z,7.00
2023-05-09T07:10:42.556Z,6.80
2023-05-09T07:13:12.144Z,6.60
2023-05-09T07:15:43.072Z,5.93
2023-05-09T07:18:12.901Z,6.45
2023-05-09T07:20:43.961Z,7.00
2023-05-09T07:23:13.478Z,7.55
2023-05-09T07:25:44.217Z,6.05
2023-05-09T07:28:13.816Z,6.30
2023-05-09T07:30:43.930Z,6.15
2023-05-09T07:33:13.427Z,5.55
2023-05-09T07:35:44.453Z,5.93
2023-05-09T07:38:14.925Z,6.00
2023-05-09T07:40:44.466Z,6.45
2023-05-09T07:43:13.973Z,6.72
2023-05-09T07:45:43.580Z,6.60
2023-05-09T07:48:13.012Z,7.72
2023-05-09T07:50:44.006Z,5.47
2023-05-09T07:53:13.611Z,6.22
2023-05-09T07:55:44.812Z,7.68
2023-05-09T07:58:14.436Z,9.00
2023-05-09T08:00:44.079Z,6.28
2023-05-09T08:03:13.685Z,4.88
2023-05-09T08:05:44.679Z,5.38
2023-05-09T08:08:14.101Z,5.65
2023-05-09T08:10:43.581Z,5.10
2023-05-09T08:13:13.652Z,6.00
2023-05-09T08:15:43.417Z,8.75
2023-05-09T08:18:13.138Z,6.32
2023-05-09T08:20:44.177Z,5.10
2023-05-09T08:23:14.003Z,5.18
2023-05-09T08:25:43.641Z,4.88
2023-05-09T08:28:13.162Z,4.43
2023-05-09T08:30:42.539Z,4.50
2023-05-09T08:33:12.114Z,4.63
2023-05-09T08:35:41.806Z,4.68
2023-05-09T08:38:13.079Z,4.07
2023-05-09T08:40:43.910Z,4.00
2023-05-09T08:43:15.191Z,5.53
2023-05-09T08:45:52.583Z,4.80
2023-05-09T08:48:23.713Z,5.53
2023-05-09T08:50:53.758Z,5.13
2023-05-09T08:53:24.960Z,5.57
2023-05-09T08:55:55.001Z,5.40
2023-05-09T08:58:24.639Z,5.75
2023-05-09T09:00:55.842Z,5.40
2023-05-09T09:03:27.014Z,5.05
2023-05-09T09:05:58.242Z,4.65
2023-05-09T09:08:30.513Z,5.07
2023-05-09T09:11:00.588Z,3.85
2023-05-09T09:13:31.483Z,4.00
2023-05-09T09:16:03.000Z,4.13
2023-05-09T09:18:36.119Z,3.50
2023-05-09T09:21:11.166Z,3.63
2023-05-09T09:23:45.369Z,3.80
2023-05-09T09:26:14.947Z,3.70
2023-05-09T09:28:44.748Z,3.50
2023-05-09T09:31:25.526Z,3.65
2023-05-09T09:33:55.088Z,3.75
2023-05-09T09:36:32.633Z,3.35
2023-05-09T09:39:06.247Z,2.70
2023-05-09T09:41:37.093Z,6.10
2023-05-09T09:44:10.205Z,1.73
2023-05-09T09:46:48.558Z,2.00
2023-05-09T09:50:43.296Z,2.25
2023-05-09T09:53:12.833Z,2.42
2023-05-09T09:55:53.653Z,2.35
2023-05-09T09:58:25.347Z,2.50
2023-05-09T10:01:08.646Z,2.53
2023-05-09T10:03:40.157Z,2.60
2023-05-09T10:06:16.320Z,2.60
2023-05-09T10:08:47.968Z,2.95
2023-05-09T10:11:17.852Z,3.00
2023-05-09T10:13:48.811Z,2.80
2023-05-09T10:16:21.453Z,3.40
2023-05-09T10:18:58.337Z,3.00
2023-05-09T10:21:29.673Z,2.80
2023-05-09T10:23:59.514Z,3.20
2023-05-09T10:26:34.510Z,3.45
2023-05-09T10:29:11.866Z,3.30
2023-05-09T10:31:43.268Z,2.90
2023-05-09T10:34:14.139Z,2.75
2023-05-09T10:36:45.732Z,3.00
2023-05-09T10:39:16.199Z,2.60
2023-05-09T10:41:45.975Z,3.50
2023-05-09T10:44:15.467Z,3.38
2023-05-09T10:46:45.718Z,2.78
2023-05-09T10:49:15.657Z,3.35
2023-05-09T10:51:46.740Z,3.03
2023-05-09T10:54:18.105Z,3.10
2023-05-09T10:56:47.584Z,2.85
2023-05-09T10:59:38.801Z,3.30
2023-05-09T11:02:14.566Z,2.17
2023-05-09T11:04:44.590Z,2.30
2023-05-09T11:07:27.847Z,2.25
2023-05-09T11:10:11.719Z,2.53
2023-05-09T11:12:58.178Z,2.70
2023-05-09T11:15:28.276Z,2.20
2023-05-09T11:18:09.369Z,2.17
2023-05-09T11:20:46.106Z,1.98
2023-05-09T11:23:19.073Z,2.40
2023-05-09T11:25:49.495Z,3.13
2023-05-09T11:28:30.768Z,2.50
2023-05-09T11:31:12.809Z,2.00
2023-05-09T11:33:45.308Z,2.00
2023-05-09T11:36:20.279Z,1.88
2023-05-09T11:38:51.226Z,1.80
2023-05-09T11:41:21.450Z,1.90
2023-05-09T11:43:52.465Z,2.05
2023-05-09T11:46:21.952Z,1.52
2023-05-09T11:48:52.025Z,1.40
2023-05-09T11:51:22.238Z,1.70
2023-05-09T11:53:54.376Z,1.80
2023-05-09T11:56:24.662Z,1.48
2023-05-09T11:58:54.962Z,1.25
2023-05-09T12:01:25.874Z,1.67
2023-05-09T12:03:55.473Z,1.40
2023-05-09T12:06:26.404Z,1.25
2023-05-09T12:08:58.862Z,1.15
2023-05-09T12:11:28.361Z,1.05
2023-05-09T12:13:57.840Z,1.15
2023-05-09T12:16:27.375Z,1.48
2023-05-09T12:18:56.999Z,1.10
2023-05-09T12:21:28.734Z,1.20
2023-05-09T12:24:00.002Z,0.70
2023-05-09T12:26:29.676Z,0.88
2023-05-09T12:28:59.971Z,0.90
2023-05-09T12:31:29.776Z,1.10
2023-05-09T12:33:59.309Z,1.05
2023-05-09T12:36:28.782Z,0.70
2023-05-09T12:38:59.758Z,2.70
2023-05-09T12:41:39.240Z,0.80
2023-05-09T12:44:11.598Z,1.00
2023-05-09T12:46:41.580Z,1.00
2023-05-09T12:50:49.210Z,1.45
2023-05-09T12:53:27.348Z,1.05
2023-05-09T12:56:04.341Z,0.98
2023-05-09T12:58:34.527Z,0.93
2023-05-09T13:01:07.101Z,1.00
2023-05-09T13:03:39.178Z,1.30
2023-05-09T13:06:15.983Z,0.70
2023-05-09T13:08:46.502Z,0.80
2023-05-09T13:11:18.272Z,4.30
2023-05-09T13:13:47.842Z,3.53
2023-05-09T13:16:17.950Z,2.97
2023-05-09T13:18:47.638Z,1.83
2023-05-09T13:21:18.511Z,4.20
2023-05-09T13:23:50.347Z,3.83
2023-05-09T13:26:19.848Z,5.87
2023-05-09T13:28:49.359Z,7.25
2023-05-09T13:31:19.649Z,5.15
2023-05-09T13:33:51.595Z,2.97
2023-05-09T13:36:23.099Z,1.38
2023-05-09T13:38:52.470Z,1.13
2023-05-09T13:41:23.400Z,1.10
2023-05-09T13:43:52.919Z,0.82
2023-05-09T13:46:22.403Z,0.47
2023-05-09T13:48:51.990Z,0.70
2023-05-09T13:51:23.976Z,0.77
2023-05-09T13:53:53.439Z,0.80
2023-05-09T13:56:23.056Z,0.47
2023-05-09T13:58:52.522Z,0.52
2023-05-09T14:01:22.082Z,1.08
2023-05-09T14:03:51.636Z,0.73
2023-05-09T14:06:22.593Z,1.10
2023-05-09T14:08:52.202Z,1.20
2023-05-09T14:11:21.714Z,0.68
2023-05-09T14:13:52.782Z,1.10
2023-05-09T14:16:22.632Z,0.80
2023-05-09T14:18:52.052Z,1.50
2023-05-09T14:21:22.956Z,0.95
2023-05-09T14:23:52.736Z,1.27
2023-05-09T14:26:22.464Z,1.20
2023-05-09T14:28:51.896Z,3.53
2023-05-09T14:31:21.571Z,4.78
2023-05-09T14:33:51.237Z,4.10
2023-05-09T14:36:22.210Z,2.50
2023-05-09T14:38:51.790Z,1.88
2023-05-09T14:41:22.581Z,1.10
2023-05-09T14:43:52.586Z,1.80
2023-05-09T14:46:22.978Z,3.38
2023-05-09T14:48:53.060Z,3.38
2023-05-09T14:51:24.102Z,2.40
2023-05-09T14:53:53.663Z,1.98
2023-05-09T14:56:23.544Z,1.63
2023-05-09T14:58:52.929Z,2.63
2023-05-09T15:01:22.623Z,3.22
2023-05-09T15:03:52.098Z,1.50
2023-05-09T15:06:23.671Z,2.10
2023-05-09T15:08:53.036Z,1.90
2023-05-09T15:11:24.045Z,2.53
2023-05-09T15:13:56.084Z,2.65
2023-05-09T15:16:25.517Z,1.92
2023-05-09T15:18:55.445Z,3.38
2023-05-09T15:21:29.000Z,4.10
2023-05-09T15:23:58.670Z,3.13
2023-05-09T15:26:28.342Z,4.95
2023-05-09T15:28:57.802Z,2.03
2023-05-09T15:31:27.499Z,1.85
2023-05-09T15:33:56.971Z,2.13
2023-05-09T15:36:29.708Z,2.67
2023-05-09T15:41:28.885Z,2.03
2023-05-09T15:43:58.279Z,1.70
2023-05-09T15:46:28.543Z,2.22
2023-05-09T15:50:45.277Z,5.57
2023-05-09T15:53:15.881Z,5.18
2023-05-09T15:55:45.957Z,3.72
2023-05-09T15:58:16.726Z,1.98
2023-05-09T16:00:46.859Z,2.60
2023-05-09T16:03:16.470Z,2.70
2023-05-09T16:05:47.589Z,2.60
2023-05-09T16:08:17.305Z,2.60
2023-05-09T16:10:49.269Z,3.20
2023-05-09T16:13:19.089Z,3.67
2023-05-09T16:15:50.395Z,3.00
2023-05-09T16:18:19.977Z,2.85
2023-05-09T16:20:50.894Z,3.03
2023-05-09T16:23:21.294Z,3.30
2023-05-09T16:25:51.072Z,2.72
2023-05-09T16:28:23.720Z,3.00
2023-05-09T16:33:22.387Z,3.03
2023-05-09T16:35:53.433Z,3.80
2023-05-09T16:38:24.373Z,3.67
2023-05-09T16:40:53.920Z,3.88
2023-05-09T16:43:23.562Z,4.25
2023-05-09T16:45:53.173Z,2.72
2023-05-09T16:48:22.696Z,3.42
2023-05-09T16:50:54.396Z,4.93
2023-05-09T16:53:24.882Z,4.28
2023-05-09T16:55:56.267Z,4.10
2023-05-09T16:58:26.099Z,3.70
2023-05-09T17:00:56.476Z,4.78
2023-05-09T17:03:26.226Z,3.47
2023-05-09T17:05:57.135Z,5.50
2023-05-09T17:08:26.681Z,4.65
2023-05-09T17:10:56.260Z,4.35
2023-05-09T17:13:25.804Z,5.35
2023-05-09T17:15:55.438Z,5.53
2023-05-09T17:18:35.891Z,4.65
2023-05-09T17:21:08.111Z,4.60
2023-05-09T17:23:37.713Z,4.75
2023-05-09T17:26:07.186Z,4.60
2023-05-09T17:28:37.166Z,4.80
2023-05-09T17:31:06.904Z,4.80
2023-05-09T17:33:36.500Z,4.68
2023-05-09T17:36:07.958Z,4.63
2023-05-09T17:38:37.661Z,4.80
2023-05-09T17:41:07.398Z,5.30
2023-05-09T17:43:36.896Z,5.38
2023-05-09T17:46:06.524Z,5.07
2023-05-09T17:48:36.219Z,5.05
2023-05-09T17:51:07.368Z,6.22
2023-05-09T17:53:36.923Z,6.15
2023-05-09T17:56:06.826Z,5.30
2023-05-09T17:58:36.385Z,4.18
2023-05-09T18:01:06.061Z,4.60
2023-05-09T18:03:35.693Z,4.28
2023-05-09T18:06:07.077Z,4.07
2023-05-09T18:08:36.981Z,4.38
2023-05-09T18:11:06.616Z,4.07
2023-05-09T18:13:36.098Z,3.83
2023-05-09T18:16:05.653Z,3.65
2023-05-09T18:18:36.839Z,5.35
2023-05-09T18:21:09.722Z,4.68
2023-05-09T18:23:39.309Z,4.20
2023-05-09T18:26:09.886Z,5.05
2023-05-09T18:28:41.108Z,4.93
2023-05-09T18:31:12.500Z,5.45
2023-05-09T18:33:42.332Z,5.32
2023-05-09T18:36:15.309Z,5.68
2023-05-09T18:38:44.808Z,5.95
2023-05-09T18:41:15.823Z,5.05
2023-05-09T18:43:47.221Z,4.82
2023-05-09T18:46:18.101Z,4.45
2023-05-09T18:50:43.198Z,4.28
2023-05-09T18:53:12.700Z,4.45
2023-05-09T18:55:43.130Z,4.15
2023-05-09T18:58:12.644Z,4.22
2023-05-09T19:00:43.049Z,4.60
2023-05-09T19:03:12.810Z,3.80
2023-05-09T19:05:44.285Z,3.35
2023-05-09T19:08:13.808Z,3.67
2023-05-09T19:10:43.888Z,3.45
2023-05-09T19:13:16.073Z,3.60
2023-05-09T19:18:15.294Z,3.35
2023-05-09T19:20:47.567Z,3.58
2023-05-09T19:23:16.922Z,3.85
2023-05-09T19:25:46.801Z,3.55
2023-05-09T19:28:17.642Z,4.18
2023-05-09T19:30:47.567Z,4.53
2023-05-09T19:33:17.096Z,4.75
2023-05-09T19:35:48.159Z,5.53
2023-05-09T19:38:17.618Z,4.60
2023-05-09T19:40:49.041Z,5.03
2023-05-09T19:43:18.753Z,5.10
2023-05-09T19:45:48.292Z,6.47
2023-05-09T19:48:17.736Z,6.35
2023-05-09T19:50:49.042Z,6.05
2023-05-09T19:53:18.465Z,6.50
2023-05-09T19:55:48.091Z,5.93
2023-05-09T19:58:18.022Z,5.97
2023-05-09T20:00:47.819Z,6.85
2023-05-09T20:03:17.314Z,6.55
2023-05-09T20:05:48.201Z,6.03
2023-05-09T20:08:17.778Z,5.80
2023-05-09T20:10:47.132Z,6.75
2023-05-09T20:13:16.524Z,5.15
2023-05-09T20:15:45.915Z,5.15
2023-05-09T20:18:16.544Z,6.20
2023-05-09T20:20:47.390Z,5.32
2023-05-09T20:23:16.679Z,5.20
2023-05-09T20:25:46.258Z,5.35
2023-05-09T20:28:20.182Z,4.78
2023-05-09T20:30:49.790Z,5.07
2023-05-09T20:33:19.420Z,5.60
2023-05-09T20:35:50.479Z,4.85
2023-05-09T20:38:20.025Z,4.00
2023-05-09T20:40:49.481Z,4.78
2023-05-09T20:43:19.338Z,5.28
2023-05-09T20:45:48.983Z,3.80
2023-05-09T20:48:18.500Z,4.43
2023-05-09T20:50:49.432Z,3.58
2023-05-09T20:53:19.154Z,3.92
2023-05-09T20:55:50.372Z,5.35
2023-05-09T20:58:20.018Z,4.57
2023-05-09T21:00:49.884Z,6.07
2023-05-09T21:03:19.630Z,5.32
2023-05-09T21:05:50.639Z,4.25
2023-05-09T21:08:19.968Z,5.00
2023-05-09T21:10:49.512Z,4.57
2023-05-09T21:13:18.923Z,5.13
2023-05-09T21:15:51.606Z,4.80
2023-05-09T21:18:21.653Z,4.50
2023-05-09T21:20:52.403Z,4.65
2023-05-09T21:23:22.398Z,5.13
2023-05-09T21:25:51.829Z,6.18
2023-05-09T21:28:21.407Z,5.80
2023-05-09T21:30:53.869Z,4.35
2023-05-09T21:33:23.879Z,3.25
2023-05-09T21:35:54.801Z,3.25
2023-05-09T21:38:24.449Z,3.38
2023-05-09T21:40:53.892Z,4.13
2023-05-09T21:43:23.271Z,4.38
2023-05-09T21:45:52.840Z,4.68
2023-05-09T21:50:45.124Z,2.30
2023-05-09T21:53:14.692Z,3.55
2023-05-09T21:55:44.220Z,3.92
2023-05-09T21:58:13.650Z,5.72
2023-05-09T22:00:43.005Z,2.90
2023-05-09T22:03:12.555Z,3.25
2023-05-09T22:05:43.421Z,3.30
2023-05-09T22:08:13.039Z,3.85
2023-05-09T22:10:42.507Z,2.97
2023-05-09T22:13:11.918Z,3.83
2023-05-09T22:15:41.328Z,3.15
2023-05-09T22:18:11.583Z,2.75
2023-05-09T22:20:42.769Z,3.22
2023-05-09T22:23:12.186Z,3.17
2023-05-09T22:25:41.695Z,3.10
2023-05-09T22:28:11.050Z,4.00
2023-05-09T22:30:40.652Z,4.50
2023-05-09T22:33:10.138Z,3.65
2023-05-09T22:35:39.665Z,3.53
2023-05-09T22:38:10.488Z,3.60
2023-05-09T22:40:40.102Z,3.55
2023-05-09T22:43:10.652Z,3.58
2023-05-09T22:45:40.176Z,3.83
2023-05-09T22:48:10.134Z,3.38
2023-05-09T22:50:39.755Z,3.65
2023-05-09T22:53:10.710Z,3.85
2023-05-09T22:55:40.239Z,3.53
2023-05-09T22:58:09.803Z,3.42
2023-05-09T23:00:39.523Z,3.95
2023-05-09T23:03:09.022Z,4.00
2023-05-09T23:05:38.577Z,3.90
2023-05-09T23:08:09.558Z,3.40
2023-05-09T23:10:39.057Z,3.67
2023-05-09T23:13:08.570Z,2.97
2023-05-09T23:15:38.298Z,3.67
2023-05-09T23:18:08.284Z,3.60
2023-05-09T23:20:38.616Z,3.88
2023-05-09T23:23:09.609Z,3.40
2023-05-09T23:25:39.292Z,3.97
2023-05-09T23:28:08.753Z,3.88
2023-05-09T23:30:38.467Z,3.45
2023-05-09T23:33:07.928Z,3.80
2023-05-09T23:35:37.427Z,2.78
2023-05-09T23:38:06.850Z,3.00
2023-05-09T23:40:38.633Z,3.08
2023-05-09T23:43:08.095Z,2.10
2023-05-09T23:45:37.575Z,2.85
2023-05-09T23:48:08.651Z,2.38
2023-05-09T23:50:38.200Z,2.33
2023-05-09T23:53:07.654Z,2.67
2023-05-09T23:55:38.511Z,2.47
2023-05-09T23:58:07.915Z,2.55
